Suvarnabhumi Airport

VTBS | BKK

Bangkok , Samut-Prakan , Thailand

Sunday, June 7th, 2020 | 13:39

Weather

VTBS 070630Z 21015KT 180V250 9999 FEW020 BKN030 32/24 Q1006 NOSIG

Charts

No Charts Available

Gates

124 Available

Runways

2 Available

Active ATC

Events -Coming Soon-

1 Events Coming Up Soon

Next event:
VTBS Flyout